Impacts TAF Board INFO
FOR SITUATIONAL AWARENESS. NOT TO BE USED FOR FLIGHT PLANNING PURPOSES.
IDs:

KLGA - New York/La Guardia, NY, US

Issued at 1437 UTC 19 Nov 2017
Updated at 1600 UTC 19 Nov 2017
Potential Impact None Slight Moderate High
Time1551Z 19/16Z 19/17Z 19/18Z 19/19Z 19/20Z 19/21Z 19/22Z 19/23Z 20/00Z 20/01Z 20/02Z 20/03Z 20/04Z>>
Type OBS PRVL PRVL PRVL PRVL PRVL PRVL PRVL PRVL PRVL PRVL PRVL PRVL PRVL
VIS 10 >6 >6 >6 >6 >6 >6 >6 >6 >6 >6 >6 >6 >6
CIG 48 45 45 45 40 40 40 40 -- -- -- -- -- --
Cover BKN BKN BKN BKN BKN BKN BKN BKN SCT SCT SCT SCT SCT SCT
FltCat VFR VFR VFR VFR VFR VFR VFR VFR VFR VFR VFR VFR VFR VFR
WX -- -- -- -- -- -- -- -- -- -- -- -- -- --
WDir 290 280 280 280 280 280 280 280 290 290 290 290 290 290
WSpd 28 24 24 24 20 20 20 20 16 16 16 16 16 16
WGst 36 38 38 38 34 34 34 34 27 27 27 27 27 27

Raw TAF
KLGA 191437Z 1915/2012 28024G38KT P6SM BKN045
  FM191900 28020G34KT P6SM BKN040
  FM192300 29016G27KT P6SM SCT050
  FM200600 29014G23KT P6SM FEW050


Raw METAR
KLGA 191551Z 29028G36KT 10SM FEW040 BKN048 11/01 A2943 RMK AO2 PK WND 30038/1533 SLP966 T01060006
KLGA 191451Z 29024G31KT 10SM FEW036 BKN043 BKN055 BKN190 12/02 A2938 RMK AO2 PK WND 28035/1414 PRESRR SLP948 60002 T01170022 53053
KLGA 191351Z 27022G35KT 10SM FEW031 BKN040 BKN100 BKN200 12/04 A2931 RMK AO2 PK WND 26038/1313 RAE00 SLP926 P0000 T01220044
KLGA 191251Z 26023G31KT 10SM -RA SCT013 BKN038 BKN065 14/11 A2924 RMK AO2 PK WND 25031/1221 SLP903 P0002 T01440106
KLGA 191240Z 25017G28KT 10SM -RA SCT013 BKN036 BKN065 14/11 A2923 RMK AO2 PK WND 25031/1221 P0002 T01440111

METAR Board
Radar Display
Forecast Discussion

FOR SITUATIONAL AWARENESS. NOT TO BE USED FOR FLIGHT PLANNING PURPOSES.